Springhouse, Pennsylvania
Current Conditions -  °F | °C
As of 9:35 AM on Thursday 23 Oct 2014 (Local Time) from KLOM Reporting Station
Broken Clouds Broken Clouds  
Wind Chill: 50°   Ceiling: 4100
Heat Index: 50°   Visibility: 10mi
Dew Point: 46°   Wind: 3mph
Humidity: 87%   Direction: 310°NW
Pressure: 29.77"   Gusts: NA
Location:  40.1858°N, 75.2283°W
Report Text: KLOM 231335Z AUTO 31003KT 10SM SCT013 SCT019 BKN041 10/08 A2977 RMK AO1
Loading
Personal Weather Stations






























Interactive Weather Map
Tropical Storm Tracking
New forecast layout! Learn more

10-Day Weather Forecast

Advertisements
Track Severe Weather on mobile